Time;durP1;ratioP1;P1;durP2;ratioP2;P2;SDS_P1;SDS_P2;PMS_P1;PMS_P2;Temp;Humidity;BMP_temperature;BMP_pressure;BME280_temperature;BME280_humidity;BME280_pressure;Samples;Min_cycle;Max_cycle;Signal;HPM_P1;HPM_P2
2022/06/04 00:00:17;;;;;;;1.27;0.87;;;17.70;99.90;;;;;;5033493;28;20237;-47
2022/06/04 00:02:46;;;;;;;0.73;0.73;;;17.60;99.90;;;;;;5040835;28;20202;-47
2022/06/04 00:05:15;;;;;;;3.10;0.80;;;17.60;99.90;;;;;;5042303;28;20658;-47
2022/06/04 00:07:43;;;;;;;1.50;0.77;;;17.60;99.90;;;;;;5035503;28;20230;-47
2022/06/04 00:15:45;;;;;;;2.50;1.33;;;17.50;99.90;;;;;;5041807;28;20635;-47
2022/06/04 00:18:12;;;;;;;1.80;0.80;;;17.40;99.90;;;;;;5025613;28;20619;-47
2022/06/04 00:20:40;;;;;;;2.17;0.90;;;17.60;99.90;;;;;;5039109;28;20218;-47
2022/06/04 00:23:09;;;;;;;0.77;0.77;;;17.50;99.90;;;;;;5044523;28;20251;-47
2022/06/04 00:25:38;;;;;;;0.77;0.77;;;17.40;99.90;;;;;;5050831;28;20275;-47
2022/06/04 00:28:12;;;;;;;0.90;0.80;;;17.40;99.90;;;;;;5035737;28;20228;-47
2022/06/04 00:30:39;;;;;;;1.47;0.90;;;17.40;99.90;;;;;;5044444;28;20213;-47
2022/06/04 00:33:07;;;;;;;1.13;1.07;;;17.40;99.90;;;;;;5044158;28;20283;-47
2022/06/04 00:35:35;;;;;;;1.17;0.97;;;17.40;99.90;;;;;;5044550;28;20190;-47
2022/06/04 00:38:02;;;;;;;1.37;0.83;;;17.30;99.90;;;;;;5043632;28;20229;-47
2022/06/04 00:40:34;;;;;;;1.07;0.83;;;17.30;99.90;;;;;;5044311;28;20696;-47
2022/06/04 00:43:01;;;;;;;2.27;0.80;;;17.20;99.90;;;;;;5052793;28;20267;-47
2022/06/04 00:46:31;;;;;;;0.90;0.90;;;17.20;99.90;;;;;;5042434;28;20289;-47
2022/06/04 00:48:59;;;;;;;3.20;0.70;;;17.10;99.90;;;;;;5039291;28;20729;-47
2022/06/04 00:51:27;;;;;;;3.00;1.00;;;17.00;99.90;;;;;;5046556;28;20197;-47
2022/06/04 00:53:57;;;;;;;3.27;1.00;;;17.00;99.90;;;;;;5052813;28;20202;-47
2022/06/04 00:56:36;;;;;;;0.70;0.70;;;16.90;99.90;;;;;;5052641;28;20201;-47
2022/06/04 00:59:15;;;;;;;0.97;0.90;;;16.90;99.90;;;;;;5031927;28;20742;-47
2022/06/04 01:01:51;;;;;;;1.23;1.20;;;16.90;99.90;;;;;;5032300;28;20668;-47
2022/06/04 01:07:29;;;;;;;2.07;1.03;;;16.90;99.90;;;;;;5031745;28;20295;-47
2022/06/04 01:10:20;;;;;;;0.90;0.90;;;16.90;99.90;;;;;;5038769;28;20788;-47
2022/06/04 01:12:58;;;;;;;0.97;0.87;;;16.80;99.90;;;;;;5031975;28;20225;-46
2022/06/04 01:15:47;;;;;;;3.27;0.70;;;16.80;99.90;;;;;;5032379;28;20198;-47
2022/06/04 01:18:23;;;;;;;0.70;0.70;;;16.80;99.90;;;;;;5033702;28;20247;-47
2022/06/04 01:20:59;;;;;;;1.23;0.60;;;16.80;99.90;;;;;;5043851;28;20226;-47
2022/06/04 01:24:21;;;;;;;2.10;0.80;;;16.80;99.90;;;;;;5045708;28;20575;-47
2022/06/04 01:27:14;;;;;;;0.70;0.70;;;16.80;99.90;;;;;;5046095;28;20240;-47
2022/06/04 01:29:54;;;;;;;0.70;0.70;;;16.80;99.90;;;;;;5027229;28;20302;-47
2022/06/04 01:32:27;;;;;;;1.87;0.70;;;16.80;99.90;;;;;;5033286;28;20198;-47
2022/06/04 01:35:03;;;;;;;0.60;0.60;;;16.80;99.90;;;;;;5038284;28;20628;-47
2022/06/04 01:37:38;;;;;;;0.70;0.70;;;16.70;99.90;;;;;;5028078;28;20726;-47
2022/06/04 01:42:59;;;;;;;1.03;0.80;;;16.70;99.90;;;;;;5051689;28;20268;-47
2022/06/04 01:45:28;;;;;;;2.00;0.70;;;16.60;99.90;;;;;;5043280;28;20254;-47
2022/06/04 01:47:59;;;;;;;1.33;0.60;;;16.60;99.90;;;;;;5047838;28;20208;-47
2022/06/04 01:50:30;;;;;;;1.23;0.90;;;16.60;99.90;;;;;;5039135;28;20276;-47
2022/06/04 01:53:05;;;;;;;0.57;0.57;;;16.60;99.90;;;;;;5049770;28;20741;-47
2022/06/04 01:55:37;;;;;;;0.70;0.70;;;16.60;99.90;;;;;;5041975;28;20198;-47
2022/06/04 01:58:11;;;;;;;0.93;0.80;;;16.60;99.90;;;;;;5043269;28;20695;-47
2022/06/04 02:00:42;;;;;;;0.93;0.60;;;16.70;99.90;;;;;;5045347;28;20222;-47
2022/06/04 02:03:13;;;;;;;2.17;0.60;;;16.70;99.90;;;;;;5043090;28;20287;-47
2022/06/04 02:05:45;;;;;;;5.00;0.90;;;16.80;99.90;;;;;;5041976;28;20287;-47
2022/06/04 02:08:15;;;;;;;2.60;0.60;;;16.80;99.90;;;;;;5035912;28;20202;-47
2022/06/04 02:10:48;;;;;;;1.37;1.37;;;16.80;99.90;;;;;;5051397;28;20225;-47
2022/06/04 02:13:18;;;;;;;1.57;0.60;;;16.80;99.90;;;;;;5046300;28;20273;-47
2022/06/04 02:15:51;;;;;;;0.50;0.50;;;16.80;99.90;;;;;;5031366;28;20594;-47
2022/06/04 02:18:18;;;;;;;0.70;0.70;;;16.80;99.90;;;;;;5044427;28;20267;-47
2022/06/04 02:20:45;;;;;;;0.90;0.80;;;16.70;99.90;;;;;;5045812;28;20261;-47
2022/06/04 02:23:12;;;;;;;0.70;0.70;;;16.70;99.90;;;;;;5042920;28;20194;-47
2022/06/04 02:25:40;;;;;;;1.13;0.60;;;16.70;99.90;;;;;;5039476;28;20232;-47
2022/06/04 02:28:10;;;;;;;0.60;0.60;;;16.70;99.90;;;;;;5034291;28;20198;-47
2022/06/04 02:30:52;;;;;;;0.50;0.50;;;16.70;99.90;;;;;;5052456;28;20225;-47
2022/06/04 02:33:28;;;;;;;1.93;0.60;;;16.70;99.90;;;;;;5042185;28;20283;-47
2022/06/04 02:35:59;;;;;;;2.00;0.90;;;16.60;99.90;;;;;;5042571;28;20201;-47
2022/06/04 02:38:35;;;;;;;1.80;0.63;;;16.60;99.90;;;;;;5046374;28;20232;-45
2022/06/04 02:41:08;;;;;;;0.60;0.60;;;16.60;99.90;;;;;;5045650;28;20272;-45
2022/06/04 02:43:42;;;;;;;1.03;0.60;;;16.60;99.90;;;;;;5055104;28;20206;-45
2022/06/04 02:46:19;;;;;;;0.83;0.57;;;16.60;99.90;;;;;;5044767;28;20218;-45
2022/06/04 02:48:50;;;;;;;1.13;1.03;;;16.70;99.90;;;;;;5051725;28;20197;-45
2022/06/04 02:51:22;;;;;;;2.23;0.67;;;16.70;99.90;;;;;;5049521;28;20661;-45
2022/06/04 02:53:49;;;;;;;2.10;0.70;;;16.70;99.90;;;;;;5043615;28;20202;-45
2022/06/04 02:56:20;;;;;;;2.03;0.80;;;16.70;99.90;;;;;;5043969;28;20199;-45
2022/06/04 02:59:02;;;;;;;1.33;0.60;;;16.70;99.90;;;;;;5051655;28;20671;-45
2022/06/04 03:01:33;;;;;;;0.70;0.70;;;16.70;99.90;;;;;;5047745;28;20201;-45
2022/06/04 03:04:01;;;;;;;1.00;1.00;;;16.60;99.90;;;;;;5046482;28;20201;-45
2022/06/04 03:06:30;;;;;;;0.67;0.67;;;16.50;99.90;;;;;;5032674;28;20221;-45
2022/06/04 03:08:57;;;;;;;1.23;1.13;;;16.50;99.90;;;;;;5034346;28;20230;-45
2022/06/04 03:11:25;;;;;;;2.10;0.80;;;16.40;99.90;;;;;;5034511;28;20234;-45
2022/06/04 03:13:52;;;;;;;0.60;0.60;;;16.40;99.90;;;;;;5034578;28;20212;-45
2022/06/04 03:16:19;;;;;;;0.73;0.60;;;16.30;99.90;;;;;;5032555;28;20190;-45
2022/06/04 03:18:48;;;;;;;2.73;0.60;;;16.30;99.90;;;;;;5034244;28;20226;-45
2022/06/04 03:21:15;;;;;;;1.83;0.70;;;16.30;99.90;;;;;;5034348;28;20226;-45
2022/06/04 03:23:42;;;;;;;2.47;0.60;;;16.30;99.90;;;;;;5034450;28;20635;-44
2022/06/04 03:26:09;;;;;;;0.93;0.93;;;16.30;99.90;;;;;;5041559;28;20222;-45
2022/06/04 03:28:36;;;;;;;2.30;0.40;;;16.20;99.90;;;;;;5040354;28;20285;-44
2022/06/04 03:31:03;;;;;;;1.00;0.63;;;16.10;99.90;;;;;;5045550;28;20218;-45
2022/06/04 03:33:30;;;;;;;0.73;0.73;;;16.00;99.90;;;;;;5053929;28;20205;-45
2022/06/04 03:35:58;;;;;;;0.97;0.80;;;16.10;99.90;;;;;;5034949;28;20652;-45
2022/06/04 03:38:26;;;;;;;1.47;1.13;;;16.10;99.90;;;;;;5038486;28;20662;-45
2022/06/04 03:40:52;;;;;;;2.33;0.60;;;16.00;99.90;;;;;;5035090;28;20264;-44
2022/06/04 03:43:19;;;;;;;0.70;0.70;;;16.10;99.90;;;;;;5033254;28;20619;-45
2022/06/04 03:45:46;;;;;;;0.87;0.80;;;16.10;99.90;;;;;;5035621;28;20635;-45
2022/06/04 03:48:13;;;;;;;0.80;0.80;;;16.10;99.90;;;;;;5036753;28;20229;-45
2022/06/04 03:50:40;;;;;;;0.97;0.97;;;16.10;99.90;;;;;;5037828;28;20223;-44
2022/06/04 03:53:09;;;;;;;1.03;1.03;;;16.00;99.90;;;;;;5033448;28;20202;-45
2022/06/04 03:55:36;;;;;;;0.70;0.70;;;16.00;99.90;;;;;;5039882;28;20630;-45
2022/06/04 03:58:04;;;;;;;1.10;0.60;;;16.00;99.90;;;;;;5045121;28;20676;-45
2022/06/04 04:00:33;;;;;;;1.23;0.77;;;16.00;99.90;;;;;;5042680;28;20250;-45
2022/06/04 04:03:02;;;;;;;1.23;0.87;;;16.00;99.90;;;;;;5051845;28;20297;-45
2022/06/04 04:05:32;;;;;;;1.00;1.00;;;16.00;99.90;;;;;;5051718;28;20254;-45
2022/06/04 04:08:00;;;;;;;0.77;0.77;;;16.00;99.90;;;;;;5045025;28;20202;-45
2022/06/04 04:10:31;;;;;;;4.10;1.07;;;16.10;99.90;;;;;;5053151;28;20234;-45
2022/06/04 04:12:58;;;;;;;2.73;1.10;;;16.20;99.90;;;;;;5040906;28;20668;-45
2022/06/04 04:15:25;;;;;;;1.00;0.97;;;16.30;99.90;;;;;;5045402;28;20240;-45
2022/06/04 04:17:52;;;;;;;1.33;0.83;;;16.50;99.90;;;;;;5044970;28;20201;-45
2022/06/04 04:20:22;;;;;;;0.70;0.70;;;16.50;99.90;;;;;;5028920;28;20272;-45
2022/06/04 04:22:49;;;;;;;1.73;1.03;;;16.70;99.90;;;;;;5020546;28;20696;-45
2022/06/04 04:25:18;;;;;;;0.77;0.77;;;16.80;99.90;;;;;;5017261;28;20195;-45
2022/06/04 04:27:47;;;;;;;2.70;0.90;;;16.90;99.90;;;;;;5014236;28;20194;-45
2022/06/04 04:30:19;;;;;;;1.33;0.93;;;17.10;99.90;;;;;;5013925;28;20285;-44
2022/06/04 04:32:47;;;;;;;2.90;1.70;;;17.20;99.90;;;;;;5027560;28;20669;-45
2022/06/04 04:35:17;;;;;;;4.97;4.57;;;17.50;99.90;;;;;;5015830;28;20661;-45
2022/06/04 04:37:44;;;;;;;4.90;4.47;;;17.80;99.90;;;;;;5016599;28;20657;-45
2022/06/04 04:40:13;;;;;;;4.30;3.83;;;17.80;99.90;;;;;;5017438;28;20310;-45
2022/06/04 04:42:41;;;;;;;4.73;4.23;;;18.00;99.90;;;;;;5018259;28;20230;-45
2022/06/04 04:45:12;;;;;;;4.43;4.13;;;18.10;99.90;;;;;;5027657;28;20201;-45
2022/06/04 04:47:41;;;;;;;4.57;3.77;;;18.20;99.90;;;;;;5027815;28;20226;-45
2022/06/04 04:50:14;;;;;;;5.20;4.90;;;18.30;99.90;;;;;;5023159;28;20300;-45
2022/06/04 04:52:41;;;;;;;6.10;5.27;;;18.30;99.90;;;;;;5023227;28;20614;-45
2022/06/04 04:55:08;;;;;;;6.67;6.17;;;18.30;99.90;;;;;;5029729;28;20206;-45
2022/06/04 04:57:35;;;;;;;6.50;6.10;;;18.30;99.90;;;;;;5024934;28;20337;-45
2022/06/04 05:00:04;;;;;;;6.47;5.97;;;18.30;99.90;;;;;;5027718;28;20637;-44
2022/06/04 05:02:32;;;;;;;8.27;7.50;;;18.30;99.90;;;;;;5013973;28;20293;-45
2022/06/04 05:05:00;;;;;;;7.47;6.87;;;18.30;99.90;;;;;;5020987;28;20244;-45
2022/06/04 05:07:27;;;;;;;10.27;9.47;;;18.30;99.90;;;;;;5027404;28;20692;-45
2022/06/04 05:09:54;;;;;;;10.17;9.23;;;18.40;99.90;;;;;;5064496;22;20231;-49
2022/06/04 05:12:21;;;;;;;9.23;8.53;;;18.60;99.90;;;;;;5070703;28;20270;-50
2022/06/04 05:14:48;;;;;;;11.50;10.50;;;19.00;99.90;;;;;;5057364;28;20278;-50
2022/06/04 05:17:16;;;;;;;10.07;9.27;;;19.50;99.90;;;;;;5067659;28;20227;-49
2022/06/04 05:19:44;;;;;;;10.23;9.17;;;20.00;99.90;;;;;;5068084;28;20288;-49
2022/06/04 05:22:11;;;;;;;9.23;8.53;;;19.90;99.90;;;;;;5056618;28;20246;-49
2022/06/04 05:24:38;;;;;;;8.13;7.43;;;20.00;99.90;;;;;;5070489;28;20247;-49
2022/06/04 05:27:06;;;;;;;7.43;6.93;;;19.90;99.90;;;;;;5070054;28;20381;-50
2022/06/04 05:29:36;;;;;;;7.07;6.47;;;20.00;99.90;;;;;;5070224;28;20574;-49
2022/06/04 05:32:04;;;;;;;6.63;6.23;;;20.20;99.90;;;;;;5051334;28;20202;-49
2022/06/04 05:34:32;;;;;;;9.53;8.63;;;20.20;99.90;;;;;;5053038;28;20689;-49
2022/06/04 05:37:02;;;;;;;9.30;8.50;;;20.00;99.90;;;;;;5051632;28;20280;-49
2022/06/04 05:39:31;;;;;;;10.00;9.10;;;19.90;99.90;;;;;;5052367;28;20263;-49
2022/06/04 05:41:59;;;;;;;10.00;9.20;;;19.70;99.90;;;;;;5050893;28;20684;-49
2022/06/04 05:44:26;;;;;;;10.83;9.90;;;19.30;99.90;;;;;;5051415;28;20293;-49
2022/06/04 05:46:53;;;;;;;8.67;7.93;;;19.00;99.90;;;;;;5061559;28;20738;-49
2022/06/04 05:49:20;;;;;;;4.50;4.13;;;18.80;99.90;;;;;;5069607;28;20698;-49
2022/06/04 05:51:49;;;;;;;7.73;7.03;;;18.70;99.90;;;;;;5063661;28;20218;-49
2022/06/04 05:54:19;;;;;;;7.83;7.07;;;18.70;99.90;;;;;;5051189;28;20225;-49
2022/06/04 05:56:48;;;;;;;6.80;6.20;;;18.70;99.90;;;;;;5055481;28;20189;-49
2022/06/04 05:59:17;;;;;;;7.90;7.20;;;18.60;99.90;;;;;;5051222;28;20616;-49
2022/06/04 06:01:45;;;;;;;9.90;9.00;;;18.60;99.90;;;;;;5054119;28;20221;-49
2022/06/04 06:04:14;;;;;;;11.90;10.70;;;18.40;99.90;;;;;;5065289;28;20258;-51
2022/06/04 06:06:44;;;;;;;13.63;12.30;;;18.10;99.90;;;;;;5066920;28;20217;-49
2022/06/04 06:09:13;;;;;;;13.53;12.10;;;17.90;99.90;;;;;;5055762;28;20228;-51
2022/06/04 06:11:42;;;;;;;16.07;12.43;;;17.80;99.90;;;;;;5057958;28;20270;-51
2022/06/04 06:14:10;;;;;;;15.33;10.77;;;17.80;99.90;;;;;;5055958;28;20208;-50
2022/06/04 06:16:39;;;;;;;13.57;12.20;;;17.70;99.90;;;;;;5055681;28;20190;-50
2022/06/04 06:19:06;;;;;;;13.63;12.23;;;17.60;99.90;;;;;;5055433;28;20193;-50
2022/06/04 06:21:35;;;;;;;13.00;11.63;;;17.60;99.90;;;;;;5065322;28;20224;-52
2022/06/04 06:24:02;;;;;;;12.50;11.30;;;17.60;99.90;;;;;;5074229;28;20224;-49
2022/06/04 06:26:31;;;;;;;13.07;11.83;;;17.60;99.90;;;;;;5072915;28;20255;-51
2022/06/04 06:29:01;;;;;;;13.70;12.40;;;17.70;99.90;;;;;;5056604;28;20284;-52
2022/06/04 06:31:30;;;;;;;13.67;10.30;;;17.80;99.90;;;;;;5055806;28;20225;-49
2022/06/04 06:33:57;;;;;;;11.77;9.93;;;18.00;99.90;;;;;;5060630;28;20206;-49
2022/06/04 06:36:24;;;;;;;8.90;8.10;;;18.10;99.90;;;;;;5069025;28;20674;-49
2022/06/04 06:38:52;;;;;;;8.87;8.00;;;18.20;99.90;;;;;;5061886;28;20197;-49
2022/06/04 06:41:23;;;;;;;8.47;7.70;;;18.20;99.90;;;;;;5059794;28;20738;-49
2022/06/04 06:43:51;;;;;;;7.47;6.95;;;18.20;99.90;;;;;;5059889;28;20526;-49
2022/06/04 06:46:21;;;;;;;7.03;5.60;;;18.30;99.90;;;;;;5070942;28;20193;-49
2022/06/04 06:48:51;;;;;;;4.47;4.17;;;18.30;99.90;;;;;;5065732;28;20237;-49
2022/06/04 06:51:21;;;;;;;4.17;3.77;;;18.40;99.90;;;;;;5060198;28;20217;-49
2022/06/04 06:53:48;;;;;;;4.40;4.00;;;18.50;99.90;;;;;;5068814;28;20235;-49
2022/06/04 06:56:17;;;;;;;3.87;3.37;;;18.70;99.90;;;;;;5067041;28;20209;-49
2022/06/04 06:58:44;;;;;;;3.13;3.03;;;19.20;99.90;;;;;;5072970;28;20196;-49
2022/06/04 07:01:12;;;;;;;2.67;2.27;;;20.70;99.90;;;;;;5059493;28;20222;-49
2022/06/04 07:03:41;;;;;;;2.10;2.00;;;22.30;99.90;;;;;;5057194;28;20201;-52
2022/06/04 07:06:10;;;;;;;2.17;1.97;;;23.70;99.90;;;;;;5052275;28;20267;-52
2022/06/04 07:08:38;;;;;;;2.13;1.93;;;25.10;99.90;;;;;;5054221;28;20263;-52
2022/06/04 07:11:06;;;;;;;1.80;1.67;;;25.90;99.90;;;;;;5052581;28;20707;-53
2022/06/04 07:13:33;;;;;;;1.90;1.33;;;27.00;99.90;;;;;;5069046;28;20674;-51
2022/06/04 07:16:00;;;;;;;2.63;2.53;;;27.80;99.90;;;;;;5062193;28;20255;-50
2022/06/04 07:18:27;;;;;;;4.57;3.30;;;28.10;99.90;;;;;;5070970;28;20201;-51
2022/06/04 07:20:56;;;;;;;2.30;2.20;;;28.40;99.90;;;;;;5061692;28;20731;-50
2022/06/04 07:23:23;;;;;;;3.00;2.80;;;28.40;99.90;;;;;;5062975;28;20194;-52
2022/06/04 07:25:50;;;;;;;2.92;2.70;;;28.40;99.90;;;;;;5062984;28;20321;-52
2022/06/04 07:28:17;;;;;;;3.55;3.25;;;28.20;99.90;;;;;;5064584;28;20282;-50
2022/06/04 07:30:44;;;;;;;3.30;2.90;;;27.80;99.90;;;;;;5064990;28;20266;-50
2022/06/04 07:33:11;;;;;;;3.38;2.78;;;27.70;99.90;;;;;;5053272;28;20685;-52
2022/06/04 07:35:38;;;;;;;1.85;1.75;;;27.90;99.90;;;;;;5053495;28;20520;-53
2022/06/04 07:38:06;;;;;;;2.03;1.90;;;28.40;99.90;;;;;;5053594;28;20198;-52
2022/06/04 07:40:33;;;;;;;2.97;1.52;;;29.10;99.90;;;;;;5069357;28;20225;-51
2022/06/04 07:43:00;;;;;;;1.25;1.25;;;29.20;99.90;;;;;;5064713;28;20201;-53
2022/06/04 07:45:27;;;;;;;1.50;1.08;;;29.70;99.90;;;;;;5073234;28;20733;-52
2022/06/04 07:47:54;;;;;;;1.40;1.30;;;29.60;99.90;;;;;;5073005;28;20278;-51
2022/06/04 07:50:21;;;;;;;1.35;1.08;;;30.10;99.90;;;;;;5067006;28;20733;-51
2022/06/04 07:52:48;;;;;;;1.38;1.33;;;30.40;99.90;;;;;;5070155;28;20280;-50
2022/06/04 07:55:17;;;;;;;1.27;1.27;;;30.20;99.90;;;;;;5073241;28;20250;-53
2022/06/04 07:57:44;;;;;;;1.08;1.02;;;30.40;99.90;;;;;;5073110;28;20743;-51
2022/06/04 08:00:12;;;;;;;1.30;1.20;;;30.40;99.90;;;;;;5067147;28;20225;-51
2022/06/04 08:02:42;;;;;;;1.20;1.17;;;30.00;99.90;;;;;;5068442;28;20630;-51
2022/06/04 08:05:09;;;;;;;1.30;1.27;;;29.90;99.90;;;;;;5073059;28;20201;-52
2022/06/04 08:07:37;;;;;;;1.83;1.83;;;30.40;99.90;;;;;;5072714;28;20722;-51
2022/06/04 08:10:05;;;;;;;2.20;1.40;;;29.90;99.90;;;;;;5069609;28;20321;-52
2022/06/04 08:12:33;;;;;;;1.17;1.08;;;29.90;99.90;;;;;;5065452;28;20495;-50
2022/06/04 08:15:01;;;;;;;1.63;1.50;;;30.40;99.90;;;;;;5066446;28;20676;-50
2022/06/04 08:17:30;;;;;;;2.63;1.70;;;30.00;99.90;;;;;;5062532;28;20657;-51
2022/06/04 08:19:57;;;;;;;1.80;1.52;;;29.90;99.90;;;;;;5070515;28;20627;-50
2022/06/04 08:22:24;;;;;;;1.88;1.77;;;30.00;99.90;;;;;;5066005;28;20200;-52
2022/06/04 08:24:51;;;;;;;2.25;1.33;;;29.70;99.90;;;;;;5063181;28;20202;-50
2022/06/04 08:27:18;;;;;;;0.70;0.70;;;30.00;99.90;;;;;;5071781;28;20220;-51
2022/06/04 08:29:48;;;;;;;1.88;1.05;;;30.40;99.90;;;;;;5063760;28;20317;-53
2022/06/04 08:32:15;;;;;;;3.30;1.33;;;30.80;99.90;;;;;;5059873;28;20554;-51
2022/06/04 08:34:42;;;;;;;1.50;1.50;;;30.70;99.90;;;;;;5052547;28;20280;-51
2022/06/04 08:37:13;;;;;;;1.60;1.38;;;30.70;99.90;;;;;;5059697;28;20429;-51
2022/06/04 08:39:40;;;;;;;1.85;1.27;;;30.70;99.90;;;;;;5071867;28;20232;-52
2022/06/04 08:42:24;;;;;;;3.40;1.55;;;30.40;99.90;;;;;;5071791;28;20229;-51
2022/06/04 08:44:58;;;;;;;2.55;1.40;;;30.80;99.90;;;;;;5072342;28;20205;-51
2022/06/04 08:47:32;;;;;;;1.15;1.00;;;30.70;99.90;;;;;;5072145;28;20313;-51
2022/06/04 08:50:05;;;;;;;6.95;1.10;;;30.90;99.90;;;;;;5071717;28;20304;-51
2022/06/04 08:52:38;;;;;;;0.80;0.80;;;31.20;99.90;;;;;;5071581;28;20201;-51
2022/06/04 08:58:07;;;;;;;1.55;1.00;;;31.70;99.90;;;;;;5071963;28;20339;-51
2022/06/04 09:00:43;;;;;;;0.73;0.73;;;31.60;99.90;;;;;;5065508;28;20262;-51
2022/06/04 09:03:15;;;;;;;1.00;1.00;;;31.40;99.90;;;;;;5069192;28;20209;-52
2022/06/04 09:06:00;;;;;;;2.13;1.48;;;31.70;99.90;;;;;;5063334;28;20189;-51
2022/06/04 09:08:40;;;;;;;1.27;1.17;;;31.70;99.90;;;;;;5071650;28;20225;-51
2022/06/04 09:11:12;;;;;;;1.33;1.33;;;32.00;99.90;;;;;;5067303;28;20286;-52
2022/06/04 09:13:45;;;;;;;1.35;1.25;;;32.10;99.90;;;;;;5063144;28;20276;-52
2022/06/04 09:16:23;;;;;;;3.75;1.35;;;32.00;99.90;;;;;;5070213;28;20621;-52
2022/06/04 09:18:53;;;;;;;1.08;1.08;;;32.10;99.90;;;;;;5070176;28;20222;-52
2022/06/04 09:21:20;;;;;;;1.52;1.08;;;32.40;99.90;;;;;;5063101;28;20275;-52
2022/06/04 09:23:48;;;;;;;0.93;0.90;;;32.70;99.90;;;;;;5060532;28;20242;-52
2022/06/04 09:26:27;;;;;;;1.85;1.10;;;33.10;99.90;;;;;;5056305;28;20641;-52
2022/06/04 09:29:05;;;;;;;1.77;1.67;;;32.70;99.90;;;;;;5070451;28;20631;-52
2022/06/04 09:31:42;;;;;;;3.97;1.95;;;33.10;99.90;;;;;;5051680;28;20225;-52
2022/06/04 09:34:14;;;;;;;1.88;1.77;;;33.50;99.90;;;;;;5051368;28;20255;-51
2022/06/04 09:36:45;;;;;;;3.00;1.20;;;33.40;99.50;;;;;;5051358;28;20197;-52
2022/06/04 09:39:21;;;;;;;2.35;1.73;;;32.90;99.40;;;;;;5057395;28;20598;-53
2022/06/04 09:41:52;;;;;;;2.08;1.08;;;33.00;97.80;;;;;;5068229;28;20270;-51
2022/06/04 09:44:19;;;;;;;3.78;1.00;;;32.80;99.90;;;;;;5069583;28;20279;-51
2022/06/04 09:46:52;;;;;;;2.65;1.15;;;32.90;98.00;;;;;;5053275;28;20284;-51
2022/06/04 09:49:32;;;;;;;1.20;0.85;;;33.20;98.80;;;;;;5062253;28;20716;-52
2022/06/04 09:52:00;;;;;;;1.02;1.02;;;33.10;97.30;;;;;;5064461;28;20205;-52
2022/06/04 09:54:29;;;;;;;1.02;1.02;;;32.80;98.30;;;;;;5057705;28;20205;-51
2022/06/04 09:57:02;;;;;;;2.10;1.90;;;33.20;99.10;;;;;;5056851;28;20542;-52
2022/06/04 09:59:32;;;;;;;2.17;1.67;;;32.80;97.20;;;;;;5057099;28;20201;-52
2022/06/04 10:02:03;;;;;;;0.95;0.95;;;33.00;95.00;;;;;;5054728;28;20682;-52
2022/06/04 10:04:39;;;;;;;0.93;0.93;;;33.10;94.30;;;;;;5060908;28;20196;-53
2022/06/04 10:07:08;;;;;;;0.95;0.77;;;33.40;96.30;;;;;;5061160;28;20227;-53
2022/06/04 10:13:42;;;;;;;1.85;1.08;;;33.90;94.80;;;;;;5049853;28;20193;-54
2022/06/04 10:15:16;;;;;;;2.63;1.08;;;33.70;98.20;;;;;;5070355;28;20292;-52
2022/06/04 10:17:45;;;;;;;1.02;0.73;;;33.60;98.20;;;;;;5069692;28;20189;-53
2022/06/04 10:20:20;;;;;;;0.77;0.77;;;33.60;96.30;;;;;;5058096;28;20229;-53
2022/06/04 10:22:52;;;;;;;0.75;0.60;;;32.90;99.50;;;;;;5060780;28;20251;-52
2022/06/04 10:25:22;;;;;;;1.50;1.02;;;32.20;99.90;;;;;;5060967;28;20197;-53
2022/06/04 10:28:03;;;;;;;2.70;0.63;;;31.70;99.90;;;;;;5058232;28;20210;-50
2022/06/04 10:30:37;;;;;;;0.95;0.95;;;30.90;99.90;;;;;;5057816;28;20271;-49
2022/06/04 10:33:18;;;;;;;1.10;0.80;;;30.20;99.90;;;;;;5059400;28;20315;-52
2022/06/04 10:35:57;;;;;;;1.45;1.17;;;28.90;99.90;;;;;;5052721;28;20197;-50
2022/06/04 10:38:34;;;;;;;0.85;0.80;;;28.70;99.90;;;;;;5050800;28;20221;-51
2022/06/04 10:41:10;;;;;;;2.28;1.52;;;28.20;99.90;;;;;;5058182;28;20282;-52
2022/06/04 10:43:51;;;;;;;0.90;0.90;;;28.10;99.90;;;;;;5049643;28;20209;-50
2022/06/04 10:46:26;;;;;;;1.40;1.30;;;28.30;99.90;;;;;;5049664;28;20194;-50
2022/06/04 10:49:10;;;;;;;1.65;0.80;;;28.10;99.90;;;;;;5050612;28;20252;-50
2022/06/04 10:51:49;;;;;;;0.80;0.80;;;27.80;99.90;;;;;;5060624;28;20279;-52
2022/06/04 10:54:24;;;;;;;2.03;1.20;;;27.80;99.90;;;;;;5057695;28;20202;-52
2022/06/04 10:56:56;;;;;;;0.98;0.75;;;28.20;99.90;;;;;;5053353;28;20205;-52
2022/06/04 10:59:28;;;;;;;1.33;0.80;;;28.00;99.90;;;;;;5065402;28;20201;-52
2022/06/04 11:02:01;;;;;;;3.22;1.63;;;27.90;99.90;;;;;;5056844;28;21447;-52
2022/06/04 11:04:38;;;;;;;1.02;0.93;;;27.80;99.90;;;;;;5073794;28;20236;-52
2022/06/04 11:07:22;;;;;;;0.73;0.70;;;27.80;99.90;;;;;;5065731;28;20205;-52
2022/06/04 11:09:51;;;;;;;2.50;0.80;;;27.70;99.90;;;;;;5068974;28;20706;-54
2022/06/04 11:12:39;;;;;;;1.15;0.90;;;27.50;99.90;;;;;;5057882;28;20601;-53
2022/06/04 11:15:12;;;;;;;2.60;0.77;;;27.60;99.90;;;;;;5073489;28;20496;-50
2022/06/04 11:17:47;;;;;;;1.10;0.75;;;27.10;99.90;;;;;;5073623;28;20639;-52
2022/06/04 11:20:19;;;;;;;0.63;0.63;;;26.80;99.90;;;;;;5060672;28;20217;-52
2022/06/04 11:22:54;;;;;;;0.70;0.70;;;26.50;99.90;;;;;;5057726;28;20731;-50
2022/06/04 11:25:27;;;;;;;2.63;0.70;;;26.50;99.90;;;;;;5060001;28;20209;-50
2022/06/04 11:27:58;;;;;;;1.80;0.90;;;26.30;99.90;;;;;;5053681;28;20218;-52
2022/06/04 11:30:39;;;;;;;2.40;1.00;;;26.40;99.90;;;;;;5064397;28;20240;-49
2022/06/04 11:33:16;;;;;;;2.35;1.67;;;26.50;99.90;;;;;;5063990;28;20270;-52
2022/06/04 11:35:53;;;;;;;1.80;0.70;;;26.60;99.90;;;;;;5073052;28;20812;-52
2022/06/04 11:38:42;;;;;;;1.10;0.90;;;26.70;99.90;;;;;;5072510;28;20266;-52
2022/06/04 11:41:23;;;;;;;9.20;1.35;;;26.80;99.90;;;;;;5058585;28;20217;-52
2022/06/04 11:44:14;;;;;;;1.00;0.95;;;27.00;99.90;;;;;;5070695;28;20196;-53
2022/06/04 11:46:57;;;;;;;1.50;1.15;;;27.20;99.90;;;;;;5073351;28;20205;-53
2022/06/04 11:49:34;;;;;;;2.83;1.00;;;27.40;99.90;;;;;;5070926;28;20270;-52
2022/06/04 11:52:20;;;;;;;1.08;1.08;;;27.40;99.90;;;;;;5072760;28;20270;-52
2022/06/04 11:55:08;;;;;;;3.70;2.42;;;27.10;99.90;;;;;;5072922;28;20236;-52
2022/06/04 11:57:41;;;;;;;1.05;1.05;;;27.10;99.90;;;;;;5071979;28;20254;-52
2022/06/04 12:00:17;;;;;;;0.70;0.70;;;26.90;99.90;;;;;;5068357;28;20662;-52
2022/06/04 12:02:54;;;;;;;3.33;1.42;;;26.90;99.90;;;;;;5063499;28;20359;-50
2022/06/04 12:05:30;;;;;;;0.90;0.75;;;26.60;99.90;;;;;;5052930;28;20209;-52
2022/06/04 12:08:04;;;;;;;1.48;1.38;;;26.60;99.90;;;;;;5061858;28;20663;-53
2022/06/04 12:10:52;;;;;;;1.60;1.60;;;26.50;99.90;;;;;;5065132;28;20253;-52
2022/06/04 12:13:26;;;;;;;1.63;1.52;;;26.80;99.90;;;;;;5067538;28;20244;-53
2022/06/04 12:15:58;;;;;;;1.02;0.98;;;27.00;99.90;;;;;;5057555;28;20205;-52
2022/06/04 12:18:29;;;;;;;2.17;0.95;;;27.10;99.90;;;;;;5063458;28;20193;-50
2022/06/04 12:26:33;;;;;;;1.90;1.10;;;27.20;99.90;;;;;;5063102;28;20212;-52
2022/06/04 12:29:01;;;;;;;3.10;0.85;;;27.40;99.90;;;;;;5051670;28;20284;-52
2022/06/04 12:31:34;;;;;;;1.27;1.08;;;27.60;99.90;;;;;;5054375;28;20213;-52
2022/06/04 12:34:03;;;;;;;1.20;1.08;;;27.70;99.90;;;;;;5051607;28;20201;-52
2022/06/04 12:36:34;;;;;;;2.20;1.98;;;27.50;99.90;;;;;;5060998;28;20240;-52
2022/06/04 12:39:06;;;;;;;4.05;1.63;;;27.50;99.90;;;;;;5053229;28;20717;-53
2022/06/04 12:41:46;;;;;;;2.42;1.42;;;27.40;99.90;;;;;;5056578;28;20751;-53
2022/06/04 12:44:26;;;;;;;4.85;0.90;;;27.50;99.90;;;;;;5066745;28;20204;-53
2022/06/04 12:46:55;;;;;;;1.45;1.05;;;27.50;99.90;;;;;;5062005;28;20216;-53
2022/06/04 12:49:32;;;;;;;2.45;0.65;;;27.40;99.90;;;;;;5051669;28;20228;-53
2022/06/04 12:52:03;;;;;;;1.08;1.08;;;27.40;99.90;;;;;;5060730;28;20547;-53
2022/06/04 12:54:53;;;;;;;3.70;1.13;;;27.50;99.90;;;;;;5053651;28;20734;-53
2022/06/04 12:57:46;;;;;;;2.47;0.90;;;27.40;99.90;;;;;;5063576;28;20717;-53
2022/06/04 13:00:28;;;;;;;1.40;1.08;;;27.30;99.90;;;;;;5064639;28;20217;-53
2022/06/04 13:03:13;;;;;;;0.90;0.90;;;27.40;99.90;;;;;;5065548;28;20201;-52
2022/06/04 13:05:58;;;;;;;0.70;0.70;;;27.40;99.90;;;;;;5040581;28;20615;-52
2022/06/04 13:08:36;;;;;;;3.22;1.13;;;27.40;99.90;;;;;;5065520;28;20316;-52
2022/06/04 13:11:16;;;;;;;1.33;0.85;;;27.40;99.90;;;;;;5071441;28;20232;-52
2022/06/04 13:13:51;;;;;;;0.80;0.80;;;27.40;99.90;;;;;;5064505;28;20220;-52
2022/06/04 13:16:21;;;;;;;2.75;0.98;;;27.30;99.90;;;;;;5061859;28;20232;-52
2022/06/04 13:19:08;;;;;;;2.00;0.70;;;27.40;99.90;;;;;;5053539;28;20198;-52
2022/06/04 13:21:38;;;;;;;0.98;0.98;;;27.20;99.90;;;;;;5071244;28;20780;-52
2022/06/04 13:24:13;;;;;;;1.05;1.05;;;27.30;99.90;;;;;;5062792;28;20271;-53
2022/06/04 13:26:46;;;;;;;0.82;0.68;;;27.40;99.90;;;;;;5066916;28;20619;-52
2022/06/04 13:29:28;;;;;;;1.38;0.90;;;27.50;99.90;;;;;;5071426;28;20229;-53
2022/06/04 13:31:57;;;;;;;2.35;1.38;;;27.50;99.90;;;;;;5071108;28;20201;-52